Aérodrome :
LOGIN :

S'inscrire | Disclaimer

   EN    FR    IT 

 










Légende :    VFR   VFR Marginal   IFR   IFR Intensif   IFR Très Intensif
Visi : 
Plafond : 
>= 8 km
>= 3000ft
5 à 8 km
1000 à 3000 ft
1500m à 5 km
500 à 1000 ft
800 à 1500m
200 à 500 ft
< 800m
< 200 ft
Symboles :   Orages  Brouillard  Fortes neiges  Fortes précipitations  Vent > 20 kt
SIGMETs :   Divers  Orages  Givrage  Turbulence  Onde Orograph.  Cendres Volcan.







- Altitude de l'aérodrome : 614 ft
- Code IATA : CRL


EBCI - Charleroi

DERNIER METAR :
  • 232350Z 21005KT 9999 FEW025 14/11 Q1012 NOSIG

METARs EXPIRÉS :
  • 232320Z 20006KT 9999 FEW025 14/11 Q1012 NOSIG
  • 232250Z 22005KT 9999 FEW025 14/12 Q1013 NOSIG
  • 232220Z 21006KT 9999 FEW025 14/12 Q1013 NOSIG
  • 232150Z 21005KT 9999 FEW025 14/12 Q1013 NOSIG
  • 232120Z 21007KT 9999 FEW025 14/12 Q1013 NOSIG

TAF TAF EBCI
Valide du 24 à 00h jusqu'au 25 à 06h UTC


232301Z 2400/2506 24006KT 9999 FEW020CB SCT040
TEMPO 2400/2415 28015G25KT 4000 SHRA
PROB30
TEMPO 2409/2415 2000 TSRA
BECMG 2413/2415 32010KT
Pas de NOTAMs connus pour ce terrain.



MET'MAP, la Météo Aéronautique d'un coup d'oeil ! - Copyright ORBIFLY Décembre 2007 - Disclaimer

ORBIFLY MET'MAP TEAM :

Programmation & Développement : Alexandra Zaïnal
Conception & Développement : Baudouin d'Aumeries
Co-Programmation & Développement : Marc-Olivier Méhu
Soutien technique & logistique : Manuel Goepfert

Contact : metmap@orbifly.com




SOURCES & CREDITS :

   NOAA